Time;durP1;ratioP1;P1;durP2;ratioP2;P2;SDS_P1;SDS_P2;PMS_P1;PMS_P2;Temp;Humidity;BMP_temperature;BMP_pressure;BME280_temperature;BME280_humidity;BME280_pressure;Samples;Min_cycle;Max_cycle;Signal;HPM_P1;HPM_P2
2021/07/01 00:01:46;;;;;;;2.35;1.17;;;17.10;77.10;;;;;;2345755;53;21850;-72
2021/07/01 00:04:13;;;;;;;2.50;1.33;;;17.10;77.30;;;;;;2355668;53;21005;-70
2021/07/01 00:06:40;;;;;;;4.05;1.50;;;17.20;77.50;;;;;;2348180;53;20974;-72
2021/07/01 00:09:06;;;;;;;4.15;1.40;;;17.20;77.60;;;;;;2362413;53;21046;-72
2021/07/01 00:11:32;;;;;;;2.97;1.37;;;17.20;77.60;;;;;;2456674;52;21545;-70
2021/07/01 00:13:59;;;;;;;3.15;1.37;;;17.10;77.40;;;;;;2346822;53;21039;-70
2021/07/01 00:16:25;;;;;;;2.92;1.20;;;17.20;77.50;;;;;;2346075;53;20938;-70
2021/07/01 00:18:51;;;;;;;2.35;1.25;;;17.20;77.50;;;;;;2348707;53;21424;-72
2021/07/01 00:21:20;;;;;;;3.45;1.52;;;17.20;77.50;;;;;;2344300;53;21495;-70
2021/07/01 00:23:46;;;;;;;2.83;1.48;;;17.20;77.40;;;;;;2348842;53;21478;-69
2021/07/01 00:26:12;;;;;;;3.35;1.42;;;17.20;77.30;;;;;;2350514;53;21466;-69
2021/07/01 00:28:44;;;;;;;2.83;1.40;;;17.20;77.20;;;;;;2351005;53;21396;-68
2021/07/01 00:31:14;;;;;;;3.12;1.75;;;17.10;77.10;;;;;;2349883;53;20914;-72
2021/07/01 00:33:49;;;;;;;3.00;1.42;;;17.10;77.10;;;;;;2349176;53;21006;-69
2021/07/01 00:36:15;;;;;;;4.05;1.55;;;17.20;77.10;;;;;;2329278;54;21493;-71
2021/07/01 00:38:41;;;;;;;4.78;1.55;;;17.10;77.20;;;;;;2344861;53;21948;-70
2021/07/01 00:41:08;;;;;;;3.08;1.77;;;17.10;77.10;;;;;;2347296;53;21748;-69
2021/07/01 00:43:35;;;;;;;3.95;1.50;;;17.10;77.00;;;;;;2549469;52;21287;-73
2021/07/01 00:46:02;;;;;;;3.00;1.80;;;17.10;77.10;;;;;;2365367;53;20944;-72
2021/07/01 00:48:29;;;;;;;3.00;1.60;;;17.10;77.10;;;;;;2349600;54;20925;-71
2021/07/01 00:50:55;;;;;;;3.83;1.70;;;17.10;77.00;;;;;;2587739;52;21086;-69
2021/07/01 00:53:21;;;;;;;2.83;1.60;;;17.10;77.10;;;;;;2349866;53;20994;-72
2021/07/01 00:55:48;;;;;;;3.35;1.73;;;17.10;77.20;;;;;;2352729;53;20954;-72
2021/07/01 00:58:15;;;;;;;4.07;1.67;;;17.10;77.30;;;;;;2348382;53;20982;-70
2021/07/01 01:00:51;;;;;;;2.87;1.52;;;17.10;77.30;;;;;;2350000;53;21112;-71
2021/07/01 01:03:18;;;;;;;3.08;1.62;;;17.10;77.30;;;;;;2347977;53;21030;-70
2021/07/01 01:05:47;;;;;;;2.67;1.40;;;17.10;77.30;;;;;;2350450;53;20958;-72
2021/07/01 01:08:14;;;;;;;3.05;1.60;;;17.10;77.50;;;;;;2396722;52;20948;-69
2021/07/01 01:10:40;;;;;;;3.70;2.20;;;17.10;77.60;;;;;;2365615;53;21002;-69
2021/07/01 01:13:08;;;;;;;4.32;2.95;;;17.10;77.60;;;;;;2385894;52;21886;-70
2021/07/01 01:15:34;;;;;;;4.62;2.33;;;17.10;77.30;;;;;;2348889;53;20983;-70
2021/07/01 01:18:03;;;;;;;5.07;2.53;;;17.10;77.20;;;;;;2346401;53;21841;-74
2021/07/01 01:20:30;;;;;;;3.92;2.22;;;17.10;77.00;;;;;;2347017;53;20922;-69
2021/07/01 01:22:57;;;;;;;3.58;2.08;;;17.10;77.10;;;;;;2349034;53;20981;-71
2021/07/01 01:25:23;;;;;;;3.80;2.10;;;17.10;77.30;;;;;;2562898;52;21070;-72
2021/07/01 01:27:49;;;;;;;3.75;2.20;;;17.10;77.50;;;;;;2347155;53;20978;-71
2021/07/01 01:30:16;;;;;;;4.55;2.40;;;17.10;77.60;;;;;;2353090;53;20970;-72
2021/07/01 01:32:43;;;;;;;3.42;2.00;;;17.00;78.20;;;;;;2375880;52;21285;-70
2021/07/01 01:35:10;;;;;;;3.12;1.80;;;17.10;77.70;;;;;;2352630;53;21034;-70
2021/07/01 01:37:38;;;;;;;3.10;1.77;;;17.10;77.90;;;;;;2349455;53;21843;-72
2021/07/01 01:40:08;;;;;;;3.67;1.73;;;17.10;77.90;;;;;;2346704;53;21818;-71
2021/07/01 01:42:35;;;;;;;3.95;2.25;;;17.10;78.00;;;;;;2468682;52;21011;-70
2021/07/01 01:45:01;;;;;;;3.62;2.17;;;17.10;78.00;;;;;;2350880;53;21002;-69
2021/07/01 01:47:28;;;;;;;3.92;2.45;;;17.10;78.00;;;;;;2346301;53;20966;-69
2021/07/01 01:49:54;;;;;;;4.25;2.55;;;17.10;78.00;;;;;;2347591;53;21007;-70
2021/07/01 01:52:23;;;;;;;3.80;2.25;;;17.10;78.00;;;;;;2327174;53;21255;-69
2021/07/01 01:54:49;;;;;;;3.40;2.10;;;17.10;78.00;;;;;;2346852;53;20963;-71
2021/07/01 01:57:18;;;;;;;3.83;1.98;;;17.20;78.20;;;;;;2355491;53;20974;-70
2021/07/01 01:59:55;;;;;;;3.35;1.90;;;17.20;78.10;;;;;;2403506;52;20964;-72
2021/07/01 02:02:27;;;;;;;4.03;2.30;;;17.20;78.10;;;;;;2584983;52;20954;-69
2021/07/01 02:04:53;;;;;;;4.22;1.90;;;17.20;77.90;;;;;;2346624;53;20930;-71
2021/07/01 02:07:20;;;;;;;3.70;2.10;;;17.20;77.90;;;;;;2586131;52;21480;-72
2021/07/01 02:09:52;;;;;;;3.70;2.17;;;17.20;77.90;;;;;;2345419;53;20962;-69
2021/07/01 02:12:18;;;;;;;;;;;17.20;77.90;;;;;;2587899;52;20946;-71
2021/07/01 02:14:44;;;;;;;3.60;1.77;;;17.20;77.40;;;;;;2356725;53;20343;-72
2021/07/01 02:17:11;;;;;;;3.58;2.10;;;17.20;77.90;;;;;;2346047;53;20962;-72
2021/07/01 02:19:37;;;;;;;3.90;1.98;;;17.30;78.00;;;;;;2584214;52;21812;-72
2021/07/01 02:22:04;;;;;;;3.92;2.03;;;17.20;77.80;;;;;;2346220;53;21058;-72
2021/07/01 02:24:30;;;;;;;3.72;2.03;;;17.20;77.80;;;;;;2346915;53;20962;-71
2021/07/01 02:26:57;;;;;;;4.47;2.25;;;17.20;77.80;;;;;;2354426;53;21078;-69
2021/07/01 02:29:23;;;;;;;4.05;2.03;;;17.20;77.80;;;;;;2346699;53;21039;-71
2021/07/01 02:31:52;;;;;;;3.58;1.90;;;17.20;77.80;;;;;;2352917;53;21878;-70
2021/07/01 02:34:23;;;;;;;4.12;2.58;;;17.30;78.00;;;;;;2350448;53;21102;-70
2021/07/01 02:36:49;;;;;;;3.12;1.85;;;17.20;77.80;;;;;;2345767;53;21837;-70
2021/07/01 02:39:15;;;;;;;3.22;1.80;;;17.20;77.80;;;;;;2346160;53;21455;-69
2021/07/01 02:41:42;;;;;;;3.28;2.08;;;17.30;78.00;;;;;;2352792;53;20930;-71
2021/07/01 02:44:08;;;;;;;3.28;1.60;;;17.30;78.10;;;;;;2345670;53;20962;-70
2021/07/01 02:46:36;;;;;;;3.42;1.90;;;17.30;78.10;;;;;;2543215;52;20993;-70
2021/07/01 02:49:02;;;;;;;3.12;1.85;;;17.30;78.10;;;;;;2367458;52;21098;-71
2021/07/01 02:51:29;;;;;;;3.10;1.70;;;17.30;78.10;;;;;;2346802;53;21465;-69
2021/07/01 02:53:55;;;;;;;3.67;1.95;;;17.30;78.10;;;;;;2586130;52;20950;-71
2021/07/01 02:56:21;;;;;;;4.10;2.47;;;17.30;78.00;;;;;;2498324;52;21006;-71
2021/07/01 02:58:48;;;;;;;3.67;2.12;;;17.30;78.00;;;;;;2346006;53;20963;-71
2021/07/01 03:01:15;;;;;;;4.18;2.25;;;17.30;77.90;;;;;;2346969;53;20939;-70
2021/07/01 03:03:41;;;;;;;4.15;2.20;;;17.30;77.90;;;;;;2348272;53;20930;-68
2021/07/01 03:06:08;;;;;;;4.15;2.50;;;17.40;78.00;;;;;;2584927;52;21886;-68
2021/07/01 03:08:35;;;;;;;3.53;1.90;;;17.30;77.90;;;;;;2328451;53;21014;-70
2021/07/01 03:11:01;;;;;;;4.07;2.17;;;17.40;78.00;;;;;;2528660;52;21778;-70
2021/07/01 03:13:27;;;;;;;3.53;1.90;;;17.40;78.00;;;;;;2389193;52;21006;-71
2021/07/01 03:15:53;;;;;;;3.47;2.05;;;17.40;78.00;;;;;;2347109;53;21816;-69
2021/07/01 03:18:19;;;;;;;3.62;2.00;;;17.40;78.10;;;;;;2344198;53;21706;-71
2021/07/01 03:20:47;;;;;;;4.07;2.10;;;17.40;78.10;;;;;;2352689;53;20896;-71
2021/07/01 03:23:13;;;;;;;4.03;2.30;;;17.40;78.10;;;;;;2345279;53;20967;-70
2021/07/01 03:25:39;;;;;;;4.62;2.47;;;17.40;78.10;;;;;;2384752;52;20926;-69
2021/07/01 03:28:06;;;;;;;4.20;2.30;;;17.40;78.10;;;;;;2326277;53;21006;-72
2021/07/01 03:30:33;;;;;;;3.60;2.28;;;17.40;78.00;;;;;;2346604;53;20955;-70
2021/07/01 03:32:59;;;;;;;4.45;2.05;;;17.40;78.00;;;;;;2345209;53;21479;-68
2021/07/01 03:35:25;;;;;;;4.12;2.17;;;17.40;78.00;;;;;;2351081;53;22036;-71
2021/07/01 03:37:51;;;;;;;3.60;1.83;;;17.50;78.20;;;;;;2346918;53;21455;-69
2021/07/01 03:40:17;;;;;;;5.65;2.25;;;17.50;78.20;;;;;;2349756;53;21036;-69
2021/07/01 03:42:44;;;;;;;3.60;2.17;;;17.50;78.20;;;;;;2348641;53;21427;-69
2021/07/01 03:45:10;;;;;;;4.32;2.42;;;17.50;78.10;;;;;;2575941;52;20958;-70
2021/07/01 03:47:39;;;;;;;3.60;1.95;;;17.50;78.10;;;;;;2349402;53;21015;-70
2021/07/01 03:50:06;;;;;;;3.70;2.20;;;17.50;78.10;;;;;;2356775;53;21038;-69
2021/07/01 03:52:32;;;;;;;3.12;1.58;;;17.50;78.10;;;;;;2358920;53;20963;-71
2021/07/01 03:54:59;;;;;;;4.07;2.30;;;17.50;78.10;;;;;;2350829;53;20975;-70
2021/07/01 03:57:25;;;;;;;3.92;2.35;;;17.50;78.10;;;;;;2346624;53;20923;-68
2021/07/01 03:59:52;;;;;;;5.87;2.50;;;17.60;78.00;;;;;;2342705;53;21013;-72
2021/07/01 04:02:19;;;;;;;3.95;2.33;;;17.60;77.80;;;;;;2347326;53;20917;-69
2021/07/01 04:04:45;;;;;;;3.75;2.33;;;17.60;77.70;;;;;;2350253;53;20937;-72
2021/07/01 04:07:11;;;;;;;4.35;2.05;;;17.50;77.80;;;;;;2358768;53;20958;-70
2021/07/01 04:09:37;;;;;;;3.60;2.10;;;17.50;77.90;;;;;;2345782;53;20938;-69
2021/07/01 04:12:05;;;;;;;3.60;1.60;;;17.50;78.10;;;;;;2347250;53;20970;-69
2021/07/01 04:14:32;;;;;;;3.78;2.15;;;17.50;78.20;;;;;;2356417;53;20974;-69
2021/07/01 04:16:58;;;;;;;3.58;2.03;;;17.60;78.40;;;;;;2346185;53;20990;-69
2021/07/01 04:19:24;;;;;;;4.03;1.87;;;17.60;78.40;;;;;;2414108;52;20973;-69
2021/07/01 04:21:50;;;;;;;4.60;2.15;;;17.60;78.40;;;;;;2344430;53;20994;-72
2021/07/01 04:24:17;;;;;;;3.42;2.12;;;17.60;78.40;;;;;;2328294;53;21439;-70
2021/07/01 04:26:46;;;;;;;3.67;2.10;;;17.60;78.40;;;;;;2351549;53;20918;-71
2021/07/01 04:29:12;;;;;;;3.58;1.90;;;17.70;78.40;;;;;;2348796;53;20962;-71
2021/07/01 04:31:40;;;;;;;3.80;2.25;;;17.70;78.40;;;;;;2329604;54;20999;-72
2021/07/01 04:34:07;;;;;;;3.37;2.00;;;17.70;78.40;;;;;;2352022;53;21001;-71
2021/07/01 04:36:33;;;;;;;3.85;1.62;;;17.70;78.30;;;;;;2348734;53;21065;-71
2021/07/01 04:39:00;;;;;;;3.58;2.03;;;17.70;78.10;;;;;;2348369;53;20983;-69
2021/07/01 04:41:27;;;;;;;3.00;1.83;;;17.70;78.10;;;;;;2347579;53;21042;-68
2021/07/01 04:43:54;;;;;;;3.70;1.83;;;17.70;78.20;;;;;;2344648;53;20946;-68
2021/07/01 04:46:20;;;;;;;3.55;1.75;;;17.70;78.20;;;;;;2347190;53;20953;-69
2021/07/01 04:48:46;;;;;;;3.65;2.20;;;17.70;78.20;;;;;;2351520;53;21010;-69
2021/07/01 04:51:13;;;;;;;2.92;1.48;;;17.70;78.20;;;;;;2443809;52;21030;-69
2021/07/01 04:53:40;;;;;;;4.50;1.85;;;17.80;78.30;;;;;;2347187;53;21110;-69
2021/07/01 04:56:07;;;;;;;2.90;1.70;;;17.80;78.30;;;;;;2351795;53;21709;-70
2021/07/01 04:58:33;;;;;;;3.50;1.92;;;17.80;78.20;;;;;;2348439;53;21030;-68
2021/07/01 05:01:00;;;;;;;3.90;2.25;;;17.80;78.20;;;;;;2345359;53;21092;-70
2021/07/01 05:03:26;;;;;;;3.67;2.08;;;17.80;78.90;;;;;;2388337;52;20910;-71
2021/07/01 05:05:54;;;;;;;3.78;1.77;;;17.80;78.20;;;;;;2563717;52;21053;-70
2021/07/01 05:08:20;;;;;;;4.28;1.87;;;17.80;78.30;;;;;;2343804;53;20974;-69
2021/07/01 05:10:47;;;;;;;3.22;1.80;;;17.90;78.30;;;;;;2349638;53;21018;-70
2021/07/01 05:13:13;;;;;;;6.97;2.00;;;17.90;78.30;;;;;;2344798;53;20985;-68
2021/07/01 05:15:39;;;;;;;3.37;1.70;;;17.90;78.30;;;;;;2345661;53;21833;-69
2021/07/01 05:18:06;;;;;;;3.72;2.00;;;17.90;78.20;;;;;;2347956;53;20978;-68
2021/07/01 05:20:32;;;;;;;3.45;1.85;;;17.90;78.10;;;;;;2348445;53;25127;-68
2021/07/01 05:23:00;;;;;;;3.60;1.75;;;17.90;78.00;;;;;;2349897;53;21597;-70
2021/07/01 05:25:26;;;;;;;3.20;1.90;;;17.90;78.00;;;;;;2348253;53;20993;-70
2021/07/01 05:27:52;;;;;;;3.72;2.12;;;17.90;78.80;;;;;;2326564;54;20988;-71
2021/07/01 05:30:19;;;;;;;3.42;1.85;;;18.00;78.20;;;;;;2352582;53;20971;-71
2021/07/01 05:32:45;;;;;;;4.75;1.98;;;17.90;78.00;;;;;;2319255;53;1727050;-70
2021/07/01 05:35:14;;;;;;;3.50;1.80;;;17.90;78.10;;;;;;2355415;53;20951;-70
2021/07/01 05:37:40;;;;;;;4.45;2.62;;;18.00;78.30;;;;;;2352225;53;20954;-71
2021/07/01 05:40:06;;;;;;;6.00;3.12;;;18.00;78.40;;;;;;2349537;53;21422;-69
2021/07/01 05:42:33;;;;;;;4.70;2.40;;;18.00;78.30;;;;;;2356294;53;21625;-68
2021/07/01 05:45:00;;;;;;;3.80;2.10;;;18.00;78.30;;;;;;2349148;53;21747;-68
2021/07/01 05:47:27;;;;;;;3.95;2.47;;;18.00;78.20;;;;;;2517739;52;20974;-70
2021/07/01 05:49:53;;;;;;;3.28;1.90;;;18.00;78.10;;;;;;2351071;53;20926;-68
2021/07/01 05:52:25;;;;;;;3.45;2.10;;;18.00;78.00;;;;;;2352320;53;21032;-69
2021/07/01 05:54:56;;;;;;;4.87;2.33;;;18.10;78.20;;;;;;2586741;52;20927;-71
2021/07/01 05:57:23;;;;;;;3.72;2.12;;;18.10;78.10;;;;;;2329984;53;21131;-69
2021/07/01 05:59:50;;;;;;;3.25;1.87;;;18.10;78.20;;;;;;2347981;53;21049;-69
2021/07/01 06:02:17;;;;;;;3.80;1.60;;;18.10;78.20;;;;;;2349896;53;20958;-69
2021/07/01 06:04:43;;;;;;;3.45;1.95;;;18.10;78.20;;;;;;2358497;53;20995;-68
2021/07/01 06:07:10;;;;;;;3.53;2.03;;;18.10;78.20;;;;;;2362799;53;20963;-69
2021/07/01 06:09:37;;;;;;;4.30;2.12;;;18.10;78.00;;;;;;2351554;53;20978;-69
2021/07/01 06:12:04;;;;;;;3.55;1.70;;;18.10;77.90;;;;;;2465051;52;21000;-69
2021/07/01 06:14:31;;;;;;;4.70;2.10;;;18.10;77.80;;;;;;2350151;53;20994;-69
2021/07/01 06:16:59;;;;;;;3.17;1.58;;;18.10;77.80;;;;;;2352845;53;20970;-69
2021/07/01 06:19:26;;;;;;;3.47;2.10;;;18.10;77.80;;;;;;2348849;53;20959;-69
2021/07/01 06:21:53;;;;;;;3.62;1.90;;;18.10;77.90;;;;;;2352524;53;20966;-68
2021/07/01 06:24:19;;;;;;;3.00;1.52;;;18.10;78.00;;;;;;2348430;53;21018;-69
2021/07/01 06:26:46;;;;;;;3.12;1.60;;;18.10;78.20;;;;;;2498780;52;20913;-69
2021/07/01 06:29:13;;;;;;;7.55;1.98;;;18.10;78.20;;;;;;2347719;53;21046;-68
2021/07/01 06:31:40;;;;;;;3.75;2.12;;;18.10;78.20;;;;;;2344944;53;20907;-69
2021/07/01 06:34:07;;;;;;;4.05;1.98;;;18.20;78.20;;;;;;2451321;52;21018;-69
2021/07/01 06:36:38;;;;;;;4.00;2.17;;;18.20;78.30;;;;;;2343884;53;21030;-68
2021/07/01 06:39:06;;;;;;;4.03;2.05;;;18.20;78.30;;;;;;2356390;53;21050;-69
2021/07/01 06:41:33;;;;;;;3.65;2.10;;;18.20;78.40;;;;;;2347631;53;22181;-68
2021/07/01 06:44:02;;;;;;;3.47;1.87;;;18.20;78.40;;;;;;2329894;53;20958;-69
2021/07/01 06:46:31;;;;;;;3.97;1.60;;;18.20;78.50;;;;;;2347363;53;21430;-69
2021/07/01 06:48:59;;;;;;;3.50;2.00;;;18.20;78.50;;;;;;2348017;53;21913;-69
2021/07/01 06:51:28;;;;;;;4.05;2.45;;;18.20;78.60;;;;;;2326645;54;20951;-68
2021/07/01 06:53:54;;;;;;;3.92;1.80;;;18.30;78.80;;;;;;2350115;53;20926;-68
2021/07/01 06:56:23;;;;;;;4.03;1.70;;;18.30;78.90;;;;;;2586021;52;21383;-69
2021/07/01 06:58:49;;;;;;;3.25;1.87;;;18.30;79.00;;;;;;2355917;53;21850;-69
2021/07/01 07:01:18;;;;;;;4.35;2.17;;;18.30;79.10;;;;;;2341609;53;20994;-69
2021/07/01 07:03:45;;;;;;;5.80;2.80;;;18.40;79.10;;;;;;2348545;53;21006;-69
2021/07/01 07:06:11;;;;;;;3.62;1.90;;;18.40;79.20;;;;;;2395500;53;21038;-69
2021/07/01 07:08:37;;;;;;;4.57;2.08;;;18.40;79.30;;;;;;2357148;53;20987;-68
2021/07/01 07:11:03;;;;;;;3.72;2.12;;;18.50;79.50;;;;;;2344995;53;20978;-69
2021/07/01 07:13:29;;;;;;;3.33;1.95;;;18.50;79.50;;;;;;2361701;53;20960;-69
2021/07/01 07:16:00;;;;;;;3.85;2.00;;;18.60;79.60;;;;;;2348543;53;21755;-69
2021/07/01 07:18:30;;;;;;;3.97;2.12;;;18.60;79.40;;;;;;2344829;53;20973;-70
2021/07/01 07:21:17;;;;;;;4.18;2.50;;;18.60;79.30;;;;;;2588013;52;21046;-70
2021/07/01 07:23:48;;;;;;;4.45;2.60;;;18.70;78.40;;;;;;2348763;53;21077;-68
2021/07/01 07:26:19;;;;;;;4.12;2.40;;;18.70;78.60;;;;;;2346105;53;21456;-68
2021/07/01 07:28:49;;;;;;;4.93;2.70;;;18.70;78.50;;;;;;2377225;53;20938;-69
2021/07/01 07:31:21;;;;;;;3.90;2.17;;;18.80;78.60;;;;;;2351698;53;20981;-69
2021/07/01 07:33:48;;;;;;;4.05;2.37;;;18.80;78.70;;;;;;2470350;52;21042;-68
2021/07/01 07:36:15;;;;;;;3.72;2.42;;;18.80;78.60;;;;;;2351048;53;21010;-71
2021/07/01 07:38:41;;;;;;;3.78;2.15;;;18.80;78.70;;;;;;2328062;53;21009;-70
2021/07/01 07:41:07;;;;;;;5.15;2.42;;;18.80;78.80;;;;;;2349491;53;20946;-69
2021/07/01 07:43:35;;;;;;;7.68;2.67;;;18.80;78.90;;;;;;2350685;53;20991;-69
2021/07/01 07:46:01;;;;;;;4.75;2.83;;;18.90;78.90;;;;;;2327472;53;21625;-72
2021/07/01 07:48:30;;;;;;;4.72;2.58;;;18.90;78.90;;;;;;2349381;53;20947;-69
2021/07/01 07:50:57;;;;;;;4.18;2.50;;;18.90;78.80;;;;;;2345359;53;21021;-70
2021/07/01 07:53:25;;;;;;;5.22;2.85;;;19.00;78.90;;;;;;2326967;53;21054;-69
2021/07/01 07:55:58;;;;;;;5.40;2.65;;;19.00;78.70;;;;;;2349251;53;21030;-68
2021/07/01 07:58:25;;;;;;;4.87;3.10;;;19.00;78.60;;;;;;2350412;53;20974;-68
2021/07/01 08:00:51;;;;;;;4.70;2.70;;;19.00;78.40;;;;;;2346653;53;20958;-67
2021/07/01 08:03:18;;;;;;;5.10;2.50;;;19.10;78.50;;;;;;2354922;53;21027;-68
2021/07/01 08:05:44;;;;;;;4.00;2.58;;;19.00;78.60;;;;;;2343931;53;21015;-68
2021/07/01 08:08:12;;;;;;;4.40;2.58;;;19.10;78.90;;;;;;2343468;53;20981;-70
2021/07/01 08:10:40;;;;;;;6.12;3.20;;;19.10;78.90;;;;;;2348620;53;21503;-69
2021/07/01 08:13:08;;;;;;;4.12;2.30;;;19.10;79.10;;;;;;2345642;53;20994;-69
2021/07/01 08:15:36;;;;;;;3.85;2.35;;;19.20;79.20;;;;;;2586873;52;20978;-69
2021/07/01 08:18:03;;;;;;;4.68;2.87;;;19.30;79.60;;;;;;2348792;53;21780;-67
2021/07/01 08:20:33;;;;;;;4.30;2.65;;;19.30;79.80;;;;;;2495761;52;20952;-69
2021/07/01 08:23:01;;;;;;;5.93;2.60;;;19.40;79.90;;;;;;2351165;53;20935;-68
2021/07/01 08:25:27;;;;;;;4.70;2.65;;;19.40;79.60;;;;;;2343954;53;21006;-70
2021/07/01 08:27:54;;;;;;;5.05;2.83;;;19.50;79.50;;;;;;2352299;53;20962;-67
2021/07/01 08:30:23;;;;;;;4.18;2.28;;;19.60;79.10;;;;;;2346978;53;20998;-68
2021/07/01 08:32:57;;;;;;;3.97;2.40;;;19.60;78.90;;;;;;2358092;53;21021;-68
2021/07/01 08:35:24;;;;;;;4.12;2.30;;;19.60;78.40;;;;;;2361023;53;21947;-68
2021/07/01 08:37:52;;;;;;;4.12;2.50;;;19.60;78.40;;;;;;2352343;53;21023;-67
2021/07/01 08:40:18;;;;;;;5.30;2.45;;;19.70;78.20;;;;;;2344255;53;20974;-71
2021/07/01 08:42:45;;;;;;;4.28;2.37;;;19.70;78.10;;;;;;2365915;53;21848;-68
2021/07/01 08:45:13;;;;;;;4.12;2.47;;;19.70;78.10;;;;;;2349592;53;20966;-68
2021/07/01 08:47:41;;;;;;;4.75;2.65;;;19.70;78.20;;;;;;2346336;53;21423;-68
2021/07/01 08:50:15;;;;;;;3.75;2.17;;;19.70;78.00;;;;;;2325945;53;20922;-67
2021/07/01 08:52:55;;;;;;;3.85;2.30;;;19.70;77.90;;;;;;2368828;52;20974;-70
2021/07/01 08:55:26;;;;;;;4.00;2.72;;;19.80;77.70;;;;;;2347525;53;21029;-67
2021/07/01 08:57:53;;;;;;;3.95;2.60;;;19.80;78.20;;;;;;2348541;53;20954;-67
2021/07/01 09:00:20;;;;;;;4.70;2.97;;;19.80;78.00;;;;;;2352721;53;20966;-67
2021/07/01 09:03:07;;;;;;;3.72;2.30;;;19.80;77.80;;;;;;2345697;53;20962;-67
2021/07/01 09:05:39;;;;;;;4.00;2.62;;;19.90;77.10;;;;;;2349990;53;21007;-67
2021/07/01 09:08:09;;;;;;;4.12;2.60;;;19.90;77.60;;;;;;2346823;53;20962;-67
2021/07/01 09:10:35;;;;;;;3.70;2.30;;;20.00;78.00;;;;;;2349337;53;21450;-67
2021/07/01 09:13:03;;;;;;;3.55;2.22;;;20.00;78.30;;;;;;2346699;53;21093;-67
2021/07/01 09:15:32;;;;;;;3.58;2.30;;;20.00;78.40;;;;;;2346497;53;21033;-71
2021/07/01 09:17:59;;;;;;;4.45;2.70;;;20.00;78.50;;;;;;2583962;52;20911;-68
2021/07/01 09:20:34;;;;;;;3.62;2.15;;;20.10;78.50;;;;;;2348131;53;22319;-67
2021/07/01 09:23:01;;;;;;;4.25;2.67;;;20.10;78.00;;;;;;2347351;53;21001;-69
2021/07/01 09:25:30;;;;;;;3.90;2.42;;;20.20;78.30;;;;;;2341423;53;21056;-71
2021/07/01 09:28:03;;;;;;;3.50;2.30;;;20.20;78.20;;;;;;2347122;53;20962;-68
2021/07/01 09:30:29;;;;;;;;;;;20.30;77.20;;;;;;2352360;53;20918;-70
2021/07/01 09:32:57;;;;;;;3.55;2.28;;;20.30;76.30;;;;;;2344129;53;20137;-70
2021/07/01 09:35:25;;;;;;;3.67;2.42;;;20.40;78.00;;;;;;2348950;53;20915;-69
2021/07/01 09:37:59;;;;;;;3.97;2.55;;;20.40;78.00;;;;;;2347881;53;21006;-71
2021/07/01 09:40:26;;;;;;;;;;;20.50;78.00;;;;;;2352636;53;21498;-68
2021/07/01 09:42:53;;;;;;;3.72;2.20;;;20.60;76.90;;;;;;2349209;53;20645;-68
2021/07/01 09:45:24;;;;;;;3.42;1.80;;;20.60;77.90;;;;;;2349439;53;22095;-67
2021/07/01 09:47:55;;;;;;;3.67;2.20;;;20.60;77.10;;;;;;2344648;53;20974;-68
2021/07/01 09:50:23;;;;;;;3.67;2.33;;;20.60;77.10;;;;;;2351395;53;20980;-68
2021/07/01 09:52:49;;;;;;;4.40;2.10;;;20.70;77.70;;;;;;2350392;53;20954;-67
2021/07/01 09:55:15;;;;;;;3.40;2.25;;;20.60;77.50;;;;;;2344594;53;20942;-68
2021/07/01 09:57:45;;;;;;;3.00;1.80;;;20.60;76.80;;;;;;2351495;53;20935;-72
2021/07/01 10:00:13;;;;;;;3.00;1.75;;;20.60;76.10;;;;;;2353213;53;20955;-70
2021/07/01 10:02:39;;;;;;;3.20;1.55;;;20.60;76.00;;;;;;2440057;52;21913;-70
2021/07/01 10:05:08;;;;;;;2.80;1.50;;;20.60;75.60;;;;;;2351933;53;21034;-67
2021/07/01 10:07:43;;;;;;;2.85;1.30;;;20.50;75.40;;;;;;2352325;53;21051;-69
2021/07/01 10:10:11;;;;;;;3.12;1.60;;;20.50;75.70;;;;;;2348944;53;20946;-67
2021/07/01 10:12:56;;;;;;;2.72;1.45;;;20.50;75.80;;;;;;2352875;53;20980;-71
2021/07/01 10:15:31;;;;;;;3.25;1.23;;;20.40;75.20;;;;;;2355831;53;20955;-70
2021/07/01 10:18:17;;;;;;;2.58;1.40;;;20.40;76.20;;;;;;2334476;53;20989;-67
2021/07/01 10:21:00;;;;;;;2.33;1.12;;;20.40;76.80;;;;;;2351288;53;21002;-68
2021/07/01 10:23:27;;;;;;;2.75;1.30;;;20.40;78.00;;;;;;2353119;53;21058;-71
2021/07/01 10:26:09;;;;;;;2.62;1.35;;;20.40;78.10;;;;;;2348233;53;20917;-69
2021/07/01 10:28:36;;;;;;;2.65;1.23;;;20.50;76.80;;;;;;2357182;53;21022;-67
2021/07/01 10:31:08;;;;;;;2.35;1.05;;;20.50;77.80;;;;;;2346652;53;20933;-67
2021/07/01 10:33:36;;;;;;;2.50;1.15;;;20.60;77.00;;;;;;2351988;53;21005;-68
2021/07/01 10:36:06;;;;;;;2.62;1.30;;;20.60;77.30;;;;;;2353061;53;20954;-70
2021/07/01 10:38:45;;;;;;;2.62;1.25;;;20.60;77.20;;;;;;2348533;53;20970;-68
2021/07/01 10:41:11;;;;;;;2.62;1.20;;;20.60;76.60;;;;;;2348772;53;20970;-67
2021/07/01 10:43:55;;;;;;;2.55;1.20;;;20.60;77.40;;;;;;2348952;53;20966;-68
2021/07/01 10:46:21;;;;;;;3.08;1.35;;;20.70;76.30;;;;;;2353061;53;20989;-68
2021/07/01 10:48:56;;;;;;;2.40;0.98;;;20.70;77.50;;;;;;2348891;53;21001;-68
2021/07/01 10:51:25;;;;;;;2.42;1.52;;;20.80;76.90;;;;;;2563163;52;20950;-67
2021/07/01 10:53:54;;;;;;;2.83;1.40;;;20.80;77.90;;;;;;2588784;52;20938;-68
2021/07/01 10:56:28;;;;;;;2.62;1.20;;;20.90;78.10;;;;;;2348967;53;20990;-71
2021/07/01 10:58:56;;;;;;;2.60;1.20;;;20.90;77.80;;;;;;2351727;53;21807;-68
2021/07/01 11:01:26;;;;;;;2.30;1.10;;;21.00;78.30;;;;;;2347991;53;21379;-68
2021/07/01 11:04:12;;;;;;;2.97;1.20;;;21.10;77.80;;;;;;2348643;53;20938;-69
2021/07/01 11:06:42;;;;;;;2.55;1.37;;;21.20;76.60;;;;;;2349375;53;20959;-69
2021/07/01 11:09:10;;;;;;;2.55;1.20;;;21.20;77.70;;;;;;2348485;53;21010;-68
2021/07/01 11:11:42;;;;;;;2.97;1.58;;;21.30;77.80;;;;;;2587408;52;21936;-69
2021/07/01 11:14:10;;;;;;;4.37;1.60;;;21.40;76.80;;;;;;2587324;52;20959;-71
2021/07/01 11:16:43;;;;;;;3.30;1.58;;;21.40;76.90;;;;;;2353048;53;21054;-70
2021/07/01 11:19:21;;;;;;;4.37;1.80;;;21.50;76.50;;;;;;2349866;53;20942;-69
2021/07/01 11:21:48;;;;;;;3.62;1.55;;;21.50;76.30;;;;;;2350099;53;20962;-66
2021/07/01 11:24:24;;;;;;;2.72;1.45;;;21.60;77.30;;;;;;2351138;53;21349;-68
2021/07/01 11:26:56;;;;;;;3.35;1.52;;;21.60;76.10;;;;;;2348849;53;20991;-70
2021/07/01 11:29:42;;;;;;;2.65;1.30;;;21.70;76.30;;;;;;2351419;53;21779;-70
2021/07/01 11:32:25;;;;;;;2.90;1.55;;;21.80;76.10;;;;;;2328528;53;21034;-68
2021/07/01 11:34:52;;;;;;;3.03;1.40;;;21.80;76.30;;;;;;2356052;53;20966;-68
2021/07/01 11:37:37;;;;;;;2.85;1.50;;;21.90;78.40;;;;;;2466272;52;21026;-70
2021/07/01 11:40:15;;;;;;;3.33;1.55;;;22.00;76.10;;;;;;2352327;53;20929;-68
2021/07/01 11:42:44;;;;;;;4.05;1.40;;;22.10;76.60;;;;;;2350129;53;21033;-71
2021/07/01 11:45:11;;;;;;;4.10;1.45;;;22.20;77.30;;;;;;2351947;53;21003;-68
2021/07/01 11:47:38;;;;;;;2.30;1.30;;;22.20;77.10;;;;;;2586929;52;21030;-71
2021/07/01 11:50:05;;;;;;;2.72;1.55;;;22.30;77.30;;;;;;2347076;53;20974;-67
2021/07/01 11:52:32;;;;;;;2.55;1.50;;;22.30;76.60;;;;;;2585338;52;20950;-68
2021/07/01 11:54:58;;;;;;;2.65;1.40;;;22.40;76.30;;;;;;2587245;52;20922;-68
2021/07/01 11:57:28;;;;;;;3.12;1.40;;;22.40;75.70;;;;;;2405778;52;21388;-68
2021/07/01 11:59:55;;;;;;;3.70;1.87;;;22.40;75.20;;;;;;2347790;53;20942;-69
2021/07/01 12:02:23;;;;;;;3.72;1.77;;;22.40;75.10;;;;;;2349885;53;20990;-70
2021/07/01 12:04:49;;;;;;;2.55;1.37;;;22.50;75.00;;;;;;2460454;52;20936;-67
2021/07/01 12:07:28;;;;;;;2.72;1.20;;;22.50;75.10;;;;;;2349991;53;21270;-67
2021/07/01 12:09:55;;;;;;;2.53;1.40;;;22.50;73.10;;;;;;2347031;53;20974;-68
2021/07/01 12:12:55;;;;;;;2.92;1.45;;;22.50;75.00;;;;;;2349721;53;20937;-70
2021/07/01 12:15:22;;;;;;;3.10;1.25;;;22.60;73.30;;;;;;2345836;53;20950;-70
2021/07/01 12:18:02;;;;;;;3.17;1.35;;;22.60;76.00;;;;;;2348472;53;20954;-70
2021/07/01 12:20:36;;;;;;;2.42;1.40;;;22.60;74.30;;;;;;2346031;53;21016;-71
2021/07/01 12:24:04;;;;;;;3.10;1.20;;;22.70;75.30;;;;;;2348730;53;20990;-70
2021/07/01 12:26:43;;;;;;;2.55;1.25;;;22.70;75.70;;;;;;2533336;52;21871;-70
2021/07/01 12:29:28;;;;;;;3.28;1.35;;;22.80;75.10;;;;;;2387206;52;21002;-71
2021/07/01 12:31:58;;;;;;;2.78;1.37;;;22.80;75.00;;;;;;2354701;52;21001;-68
2021/07/01 12:34:25;;;;;;;2.40;1.20;;;22.80;75.20;;;;;;2353478;53;21353;-68
2021/07/01 12:37:04;;;;;;;3.92;1.42;;;22.90;75.30;;;;;;2346625;53;22180;-68
2021/07/01 12:39:38;;;;;;;2.40;1.20;;;23.00;74.40;;;;;;2346033;53;20949;-68
2021/07/01 12:42:26;;;;;;;2.35;1.08;;;23.00;75.40;;;;;;2558959;52;21042;-70
2021/07/01 12:45:02;;;;;;;2.85;1.37;;;23.10;74.40;;;;;;2392721;52;20970;-68
2021/07/01 12:47:32;;;;;;;2.83;1.20;;;23.20;74.90;;;;;;2361596;53;20988;-68
2021/07/01 12:50:00;;;;;;;2.33;1.10;;;23.30;76.50;;;;;;2351220;53;20963;-68
2021/07/01 12:52:37;;;;;;;2.87;1.50;;;23.40;76.70;;;;;;2349373;53;20930;-71
2021/07/01 12:55:06;;;;;;;2.90;1.40;;;23.50;75.60;;;;;;2345921;53;20980;-68
2021/07/01 12:57:32;;;;;;;3.40;1.77;;;23.60;76.40;;;;;;2349959;53;21546;-70